Time;durP1;ratioP1;P1;durP2;ratioP2;P2;SDS_P1;SDS_P2;PMS_P1;PMS_P2;Temp;Humidity;BMP_temperature;BMP_pressure;BME280_temperature;BME280_humidity;BME280_pressure;Samples;Min_cycle;Max_cycle;Signal;HPM_P1;HPM_P2
2022/01/01 00:00:18;;;;;;;1.40;0.80;;;-1.20;99.90;;;;;;4977955;28;20769;-91
2022/01/01 00:02:51;;;;;;;1.83;1.00;;;-1.10;99.90;;;;;;4978832;28;20273;-91
2022/01/01 00:05:22;;;;;;;1.83;0.90;;;-1.20;99.90;;;;;;4977930;28;20220;-91
2022/01/01 00:07:54;;;;;;;1.30;0.90;;;-1.20;99.90;;;;;;4976761;28;20212;-93
2022/01/01 00:10:26;;;;;;;1.67;0.80;;;-1.30;99.90;;;;;;4960276;28;20327;-94
2022/01/01 00:13:16;;;;;;;1.90;0.93;;;-1.40;99.90;;;;;;4981968;28;20207;-92
2022/01/01 00:15:47;;;;;;;1.97;0.80;;;-1.50;99.90;;;;;;4979913;28;20213;-93
2022/01/01 00:18:20;;;;;;;1.27;0.90;;;-1.50;99.90;;;;;;4977676;28;20250;-93
2022/01/01 00:20:51;;;;;;;1.97;0.90;;;-1.60;99.90;;;;;;4976479;28;20224;-94
2022/01/01 00:23:24;;;;;;;2.47;1.30;;;-1.70;99.90;;;;;;4980036;28;20208;-93
2022/01/01 00:25:56;;;;;;;5.63;1.13;;;-1.80;99.90;;;;;;4975925;28;20269;-94
2022/01/01 00:28:27;;;;;;;2.43;1.00;;;-1.80;99.90;;;;;;4978382;28;20234;-93
2022/01/01 00:30:58;;;;;;;2.43;1.13;;;-1.80;99.90;;;;;;4976330;28;20246;-93
2022/01/01 00:33:32;;;;;;;2.97;1.20;;;-1.80;99.90;;;;;;4976011;28;20239;-94
2022/01/01 00:36:03;;;;;;;1.17;0.67;;;-1.90;99.90;;;;;;4977557;28;20225;-92
2022/01/01 00:38:35;;;;;;;2.90;0.90;;;-2.00;99.90;;;;;;4976493;28;20740;-93
2022/01/01 00:41:06;;;;;;;1.33;0.80;;;-2.20;99.90;;;;;;4976261;28;20219;-94
2022/01/01 00:43:37;;;;;;;1.73;1.00;;;-2.30;99.90;;;;;;4977984;28;20203;-93
2022/01/01 00:46:08;;;;;;;2.57;1.10;;;-2.40;99.90;;;;;;4978249;28;20255;-93
2022/01/01 00:48:41;;;;;;;1.40;0.80;;;-2.50;99.90;;;;;;4976881;28;20215;-93
2022/01/01 00:51:29;;;;;;;1.50;0.97;;;-2.50;99.90;;;;;;4977928;28;20210;-92
2022/01/01 00:54:00;;;;;;;1.50;1.20;;;-2.50;99.90;;;;;;4978727;28;20579;-93
2022/01/01 00:56:31;;;;;;;2.23;1.00;;;-2.70;99.90;;;;;;4982162;28;20537;-93
2022/01/01 00:59:02;;;;;;;1.60;1.20;;;-2.80;99.90;;;;;;4981637;28;20226;-93
2022/01/01 01:01:33;;;;;;;2.13;1.20;;;-2.80;99.90;;;;;;4980546;28;20214;-92
2022/01/01 01:04:07;;;;;;;5.43;1.23;;;-2.90;99.90;;;;;;4984628;28;20214;-91
2022/01/01 01:06:38;;;;;;;1.40;1.23;;;-2.90;99.90;;;;;;4993820;28;20203;-92
2022/01/01 01:09:10;;;;;;;2.90;1.23;;;-3.00;99.90;;;;;;4997062;28;20317;-92
2022/01/01 01:11:46;;;;;;;3.00;1.37;;;-3.10;99.90;;;;;;4999736;28;20211;-92
2022/01/01 01:14:26;;;;;;;2.47;1.30;;;-3.10;99.90;;;;;;4999977;28;20198;-93
2022/01/01 01:17:00;;;;;;;1.93;1.20;;;-3.30;99.90;;;;;;4999701;28;20201;-93
2022/01/01 01:19:33;;;;;;;1.83;1.20;;;-3.40;99.90;;;;;;4999868;28;20199;-92
2022/01/01 01:22:04;;;;;;;2.60;1.13;;;-3.50;99.90;;;;;;5000234;28;20215;-93
2022/01/01 01:24:36;;;;;;;3.60;1.53;;;-3.60;99.90;;;;;;4998155;28;20214;-93
2022/01/01 01:27:07;;;;;;;2.00;1.50;;;-3.70;99.90;;;;;;4995280;28;20202;-92
2022/01/01 01:29:42;;;;;;;3.53;2.00;;;-3.80;99.90;;;;;;4995123;28;20235;-92
2022/01/01 01:32:13;;;;;;;2.43;1.47;;;-3.80;99.90;;;;;;4991689;28;20265;-92
2022/01/01 01:34:48;;;;;;;1.50;1.37;;;-3.80;99.90;;;;;;4993893;28;20211;-90
2022/01/01 01:37:21;;;;;;;3.13;1.30;;;-3.80;99.90;;;;;;4989860;28;20218;-92
2022/01/01 01:39:52;;;;;;;2.77;1.43;;;-3.80;99.90;;;;;;4990727;28;20423;-93
2022/01/01 01:42:25;;;;;;;3.30;1.50;;;-3.80;99.90;;;;;;4986226;28;20250;-91
2022/01/01 01:44:57;;;;;;;5.47;1.73;;;-3.90;99.90;;;;;;4986402;28;20211;-90
2022/01/01 01:47:31;;;;;;;2.43;1.70;;;-3.90;99.90;;;;;;4985632;28;20207;-91
2022/01/01 01:50:11;;;;;;;3.47;1.80;;;-3.90;99.90;;;;;;4985345;28;20238;-92
2022/01/01 01:52:45;;;;;;;1.60;1.43;;;-4.00;99.90;;;;;;4985075;28;20217;-92
2022/01/01 01:55:18;;;;;;;4.40;1.97;;;-4.00;99.90;;;;;;4983847;28;20221;-92
2022/01/01 01:57:50;;;;;;;2.00;1.40;;;-4.00;99.90;;;;;;4982397;28;20261;-92
2022/01/01 02:00:48;;;;;;;3.50;2.20;;;-4.10;99.90;;;;;;4982259;28;20215;-92
2022/01/01 02:03:19;;;;;;;7.83;2.43;;;-4.20;99.90;;;;;;4964364;28;20294;-92
2022/01/01 02:05:53;;;;;;;8.30;3.37;;;-4.30;99.90;;;;;;4964326;28;20211;-91
2022/01/01 02:08:26;;;;;;;7.30;3.63;;;-4.40;99.90;;;;;;4966250;28;20215;-93
2022/01/01 02:10:57;;;;;;;5.63;3.40;;;-4.50;99.90;;;;;;4964130;28;20231;-92
2022/01/01 02:13:34;;;;;;;5.17;2.70;;;-4.50;99.90;;;;;;4978596;28;20211;-93
2022/01/01 02:16:28;;;;;;;5.57;3.10;;;-4.50;99.90;;;;;;4981572;28;20261;-91
2022/01/01 02:19:00;;;;;;;4.27;3.13;;;-4.60;99.90;;;;;;4979080;28;20210;-91
2022/01/01 02:21:35;;;;;;;6.27;3.83;;;-4.70;99.90;;;;;;4978853;28;20621;-91
2022/01/01 02:24:09;;;;;;;6.57;4.23;;;-4.80;99.90;;;;;;4963839;28;20218;-91
2022/01/01 02:26:41;;;;;;;7.90;6.30;;;-4.80;99.90;;;;;;4961510;28;20294;-92
2022/01/01 02:29:13;;;;;;;9.43;7.20;;;-4.80;99.90;;;;;;4962135;28;20235;-91
2022/01/01 02:31:44;;;;;;;9.63;7.57;;;-4.80;99.90;;;;;;4961866;28;20727;-92
2022/01/01 02:34:16;;;;;;;11.40;7.30;;;-4.90;99.90;;;;;;4963385;28;20259;-90
2022/01/01 02:36:49;;;;;;;7.10;4.23;;;-4.90;99.90;;;;;;4963147;28;20681;-93
2022/01/01 02:39:23;;;;;;;6.30;4.17;;;-4.80;99.90;;;;;;4965374;28;20243;-90
2022/01/01 02:41:57;;;;;;;7.97;4.03;;;-4.90;99.90;;;;;;4963964;28;20705;-92
2022/01/01 02:44:30;;;;;;;6.40;4.17;;;-4.90;99.90;;;;;;4963609;28;20211;-92
2022/01/01 02:47:02;;;;;;;12.97;7.00;;;-4.90;99.90;;;;;;4963504;29;20203;-91
2022/01/01 02:49:34;;;;;;;29.57;15.43;;;-4.90;99.90;;;;;;4965310;28;20215;-90
2022/01/01 02:52:11;;;;;;;16.07;8.43;;;-5.00;99.90;;;;;;4963502;29;20242;-92
2022/01/01 02:54:43;;;;;;;15.63;9.20;;;-5.00;99.90;;;;;;4965011;28;20249;-90
2022/01/01 02:57:18;;;;;;;11.27;7.53;;;-5.10;99.90;;;;;;4961782;28;20567;-91
2022/01/01 02:59:51;;;;;;;8.30;4.90;;;-5.10;99.90;;;;;;4962619;28;20231;-91
2022/01/01 03:02:23;;;;;;;6.53;4.30;;;-5.10;99.90;;;;;;4960960;29;20246;-91
2022/01/01 03:04:55;;;;;;;7.63;4.77;;;-5.10;99.90;;;;;;4962114;28;20211;-91
2022/01/01 03:07:28;;;;;;;5.30;4.33;;;-5.10;99.90;;;;;;4963331;28;20245;-91
2022/01/01 03:09:58;;;;;;;9.37;5.03;;;-5.20;99.90;;;;;;4963221;28;20253;-91
2022/01/01 03:12:30;;;;;;;5.87;3.40;;;-5.20;99.90;;;;;;4965381;28;20273;-91
2022/01/01 03:15:01;;;;;;;5.73;3.90;;;-5.20;99.90;;;;;;4966138;28;20213;-91
2022/01/01 03:17:32;;;;;;;10.03;5.07;;;-5.30;99.90;;;;;;4964902;29;20204;-91
2022/01/01 03:20:04;;;;;;;6.90;4.23;;;-5.20;99.90;;;;;;4983478;28;20222;-90
2022/01/01 03:22:39;;;;;;;4.67;2.90;;;-5.20;99.90;;;;;;4991909;28;20209;-90
2022/01/01 03:25:14;;;;;;;5.47;3.40;;;-5.20;99.90;;;;;;4991179;28;20221;-91
2022/01/01 03:27:47;;;;;;;4.73;2.57;;;-5.20;99.90;;;;;;4993616;28;20208;-91
2022/01/01 03:30:18;;;;;;;5.00;2.77;;;-5.20;99.90;;;;;;4991474;28;20217;-91
2022/01/01 03:32:49;;;;;;;5.77;2.80;;;-5.20;99.90;;;;;;4991177;28;20214;-91
2022/01/01 03:35:21;;;;;;;4.83;3.20;;;-5.20;99.90;;;;;;4986576;28;20242;-91
2022/01/01 03:37:55;;;;;;;3.80;2.53;;;-5.20;99.90;;;;;;4987833;28;20208;-90
2022/01/01 03:40:26;;;;;;;6.07;3.53;;;-5.20;99.90;;;;;;4988014;28;20223;-91
2022/01/01 03:43:00;;;;;;;8.53;3.70;;;-5.30;99.90;;;;;;4987514;28;20222;-90
2022/01/01 03:45:32;;;;;;;7.03;3.70;;;-5.40;99.90;;;;;;4989708;28;20214;-91
2022/01/01 03:48:05;;;;;;;7.30;4.50;;;-5.40;99.90;;;;;;4995194;28;20207;-91
2022/01/01 03:50:42;;;;;;;8.63;5.40;;;-5.40;99.90;;;;;;4995231;28;20298;-90
2022/01/01 03:53:16;;;;;;;12.33;4.97;;;-5.40;99.90;;;;;;4995344;28;20221;-90
2022/01/01 03:55:47;;;;;;;8.20;5.20;;;-5.40;99.90;;;;;;4995095;28;20219;-91
2022/01/01 03:58:18;;;;;;;7.83;4.37;;;-5.40;99.90;;;;;;4993472;28;20206;-90
2022/01/01 04:00:50;;;;;;;13.73;6.37;;;-5.40;99.90;;;;;;4990049;28;20198;-91
2022/01/01 04:03:22;;;;;;;11.03;5.97;;;-5.50;99.90;;;;;;4991012;28;20211;-91
2022/01/01 04:05:53;;;;;;;10.67;4.77;;;-5.50;99.90;;;;;;4989215;28;20232;-90
2022/01/01 04:08:29;;;;;;;6.63;4.37;;;-5.50;99.90;;;;;;4988513;28;20236;-91
2022/01/01 04:11:03;;;;;;;7.90;4.60;;;-5.50;99.90;;;;;;4987421;28;20226;-90
2022/01/01 04:13:35;;;;;;;6.17;4.00;;;-5.50;99.90;;;;;;4987490;28;20282;-91
2022/01/01 04:16:06;;;;;;;7.43;4.50;;;-5.50;99.90;;;;;;4992704;28;20225;-91
2022/01/01 04:18:45;;;;;;;8.37;5.00;;;-5.50;99.90;;;;;;4992928;28;20555;-90
2022/01/01 04:21:20;;;;;;;8.77;5.07;;;-5.50;99.90;;;;;;4994995;28;20217;-91
2022/01/01 04:23:54;;;;;;;7.53;4.73;;;-5.60;99.90;;;;;;4993428;28;20206;-91
2022/01/01 04:26:27;;;;;;;8.53;5.00;;;-5.60;99.90;;;;;;4995776;28;20276;-91
2022/01/01 04:28:58;;;;;;;7.17;4.63;;;-5.60;99.90;;;;;;4991823;28;20213;-90
2022/01/01 04:31:30;;;;;;;6.63;4.47;;;-5.70;99.90;;;;;;4976693;28;20271;-90
2022/01/01 04:34:01;;;;;;;7.70;4.73;;;-5.60;99.90;;;;;;4977210;29;20214;-90
2022/01/01 04:36:33;;;;;;;6.57;3.90;;;-5.70;99.90;;;;;;4976971;28;20322;-90
2022/01/01 04:39:08;;;;;;;6.93;4.50;;;-5.70;99.90;;;;;;4977054;28;20204;-90
2022/01/01 04:41:41;;;;;;;11.93;5.87;;;-5.70;99.90;;;;;;4976955;28;20227;-91
2022/01/01 04:44:14;;;;;;;6.27;4.50;;;-5.70;99.90;;;;;;4978698;28;20225;-91
2022/01/01 04:46:45;;;;;;;5.43;4.03;;;-5.70;99.90;;;;;;4979097;28;20210;-90
2022/01/01 04:49:17;;;;;;;8.60;4.80;;;-5.80;99.90;;;;;;4978281;28;20226;-91
2022/01/01 04:51:49;;;;;;;8.90;4.83;;;-5.80;99.90;;;;;;4978712;28;20246;-90
2022/01/01 04:54:22;;;;;;;10.23;5.23;;;-5.80;99.90;;;;;;4979637;28;20211;-90
2022/01/01 04:56:54;;;;;;;10.03;5.27;;;-5.80;99.90;;;;;;4980253;28;20252;-88
2022/01/01 04:59:25;;;;;;;10.63;5.17;;;-5.90;99.90;;;;;;4979302;28;20234;-89
2022/01/01 05:01:56;;;;;;;10.70;5.87;;;-5.90;99.90;;;;;;4978474;28;20238;-90
2022/01/01 05:04:29;;;;;;;8.33;5.97;;;-5.90;99.90;;;;;;4979159;28;20582;-91
2022/01/01 05:07:01;;;;;;;11.27;6.13;;;-6.00;99.90;;;;;;4979621;28;20205;-90
2022/01/01 05:09:35;;;;;;;8.90;6.23;;;-6.00;99.90;;;;;;4980987;28;20211;-90
2022/01/01 05:12:11;;;;;;;8.93;6.07;;;-6.00;99.90;;;;;;4980534;28;20238;-90
2022/01/01 05:14:44;;;;;;;10.93;6.60;;;-6.10;99.90;;;;;;4981286;28;20214;-91
2022/01/01 05:17:18;;;;;;;11.50;6.17;;;-6.20;99.90;;;;;;4980971;28;20199;-88
2022/01/01 05:19:51;;;;;;;8.20;5.97;;;-6.20;99.90;;;;;;4981248;28;20192;-86
2022/01/01 05:22:23;;;;;;;9.60;5.80;;;-6.30;99.90;;;;;;4981754;28;20230;-89
2022/01/01 05:24:59;;;;;;;11.60;5.63;;;-6.20;99.90;;;;;;4981768;28;20194;-90
2022/01/01 05:27:32;;;;;;;11.40;6.23;;;-6.30;99.90;;;;;;4981339;28;20209;-90
2022/01/01 05:30:05;;;;;;;9.73;6.20;;;-6.30;99.90;;;;;;4981047;28;20198;-91
2022/01/01 05:32:35;;;;;;;10.77;6.00;;;-6.30;99.90;;;;;;4980561;28;20238;-89
2022/01/01 05:35:10;;;;;;;10.67;6.37;;;-6.30;99.90;;;;;;4980931;28;20213;-91
2022/01/01 05:37:41;;;;;;;14.60;7.43;;;-6.30;99.90;;;;;;4980748;28;20195;-90
2022/01/01 05:40:15;;;;;;;14.43;8.67;;;-6.30;99.90;;;;;;4980318;28;20208;-89
2022/01/01 05:42:47;;;;;;;15.57;8.43;;;-6.30;99.90;;;;;;4980701;28;20214;-89
2022/01/01 05:45:27;;;;;;;14.10;8.63;;;-6.30;99.90;;;;;;4979349;29;20248;-90
2022/01/01 05:47:58;;;;;;;12.70;7.97;;;-6.30;99.90;;;;;;4980385;28;20296;-90
2022/01/01 05:50:38;;;;;;;13.20;8.23;;;-6.30;99.90;;;;;;4979413;28;20254;-90
2022/01/01 05:53:10;;;;;;;14.57;8.50;;;-6.30;99.90;;;;;;4978933;28;20277;-89
2022/01/01 05:55:49;;;;;;;12.07;7.43;;;-6.30;99.90;;;;;;4978573;28;20586;-91
2022/01/01 05:58:21;;;;;;;12.50;7.57;;;-6.30;99.90;;;;;;4978273;28;20222;-90
2022/01/01 06:00:53;;;;;;;13.50;8.60;;;-6.30;99.90;;;;;;4978756;28;20210;-90
2022/01/01 06:03:25;;;;;;;13.83;8.90;;;-6.30;99.90;;;;;;4987570;28;20218;-90
2022/01/01 06:05:57;;;;;;;13.10;7.27;;;-6.40;99.90;;;;;;4999717;28;20193;-89
2022/01/01 06:08:42;;;;;;;10.63;6.60;;;-6.30;99.90;;;;;;5000605;28;20214;-90
2022/01/01 06:11:15;;;;;;;11.73;6.93;;;-6.30;99.90;;;;;;5000073;28;20206;-90
2022/01/01 06:13:47;;;;;;;12.87;7.20;;;-6.30;99.90;;;;;;5000472;28;20229;-89
2022/01/01 06:16:17;;;;;;;12.67;7.10;;;-6.30;99.90;;;;;;4999946;28;20209;-92
2022/01/01 06:18:51;;;;;;;10.63;6.93;;;-6.30;99.90;;;;;;5969731;23;20205;-84
2022/01/01 06:21:28;;;;;;;11.13;7.13;;;-6.40;99.90;;;;;;5000201;28;20198;-90
2022/01/01 06:24:00;;;;;;;9.93;6.70;;;-6.40;99.90;;;;;;4999824;28;20195;-90
2022/01/01 06:29:08;;;;;;;12.83;7.07;;;-6.40;99.90;;;;;;5623283;23;20232;-90
2022/01/01 06:31:48;;;;;;;10.60;6.70;;;-6.50;99.90;;;;;;4999564;28;20191;-91
2022/01/01 06:34:25;;;;;;;11.67;6.23;;;-6.50;99.90;;;;;;4999530;28;20203;-90
2022/01/01 06:37:01;;;;;;;10.50;6.90;;;-6.50;99.90;;;;;;4999657;28;20260;-89
2022/01/01 06:39:33;;;;;;;11.67;7.57;;;-6.50;99.90;;;;;;4998551;28;20198;-90
2022/01/01 06:42:05;;;;;;;15.10;9.30;;;-6.50;99.90;;;;;;4999306;28;20280;-90
2022/01/01 06:44:37;;;;;;;13.53;8.37;;;-6.50;99.90;;;;;;4999487;28;20222;-90
2022/01/01 06:47:09;;;;;;;15.17;9.07;;;-6.60;99.90;;;;;;4999739;28;20199;-90
2022/01/01 07:08:25;;;;;;;9.57;5.80;;;-6.70;99.90;;;;;;4978534;28;20236;-89
2022/01/01 07:10:58;;;;;;;8.67;5.73;;;-6.70;99.90;;;;;;4979550;28;20214;-90
2022/01/01 07:13:30;;;;;;;8.60;5.90;;;-6.70;99.90;;;;;;4979779;28;20243;-91
2022/01/01 07:16:03;;;;;;;10.40;6.53;;;-6.70;99.90;;;;;;4979919;28;20212;-91
2022/01/01 07:18:37;;;;;;;8.70;6.13;;;-6.70;99.90;;;;;;4979816;28;20197;-88
2022/01/01 07:21:10;;;;;;;10.33;6.57;;;-6.70;99.90;;;;;;4979857;28;20204;-90
2022/01/01 07:23:44;;;;;;;9.83;5.37;;;-6.70;99.90;;;;;;4979755;28;20189;-90
2022/01/01 07:26:17;;;;;;;10.77;6.20;;;-6.70;99.90;;;;;;4979793;28;20232;-91
2022/01/01 07:28:51;;;;;;;9.27;5.97;;;-6.80;99.90;;;;;;4979591;28;20204;-90
2022/01/01 07:31:25;;;;;;;8.60;6.07;;;-6.80;99.90;;;;;;4979771;28;20288;-88
2022/01/01 07:33:57;;;;;;;9.27;5.77;;;-6.70;99.90;;;;;;4979210;28;20231;-90
2022/01/01 07:41:40;;;;;;;8.73;5.57;;;-6.80;99.90;;;;;;4975246;28;20229;-91
2022/01/01 07:46:49;;;;;;;9.07;5.20;;;-6.80;99.90;;;;;;5513122;23;20240;-91
2022/01/01 07:49:23;;;;;;;11.50;5.23;;;-6.80;99.90;;;;;;5018313;28;20196;-91
2022/01/01 08:10:51;;;;;;;9.37;5.97;;;-6.80;99.90;;;;;;6103587;23;20507;-87
2022/01/01 08:13:24;;;;;;;10.37;6.17;;;-6.80;99.90;;;;;;4995509;28;20239;-91
2022/01/01 08:15:58;;;;;;;9.97;5.97;;;-6.80;99.90;;;;;;4996218;28;20210;-90
2022/01/01 08:18:31;;;;;;;8.03;5.90;;;-6.80;99.90;;;;;;4998105;28;20209;-88
2022/01/01 08:21:03;;;;;;;9.63;5.53;;;-6.90;99.90;;;;;;4997217;28;20221;-88
2022/01/01 08:23:36;;;;;;;12.03;5.87;;;-6.80;99.90;;;;;;5000647;28;20217;-90
2022/01/01 08:26:15;;;;;;;11.13;6.00;;;-6.80;99.90;;;;;;5000434;28;20224;-92
2022/01/01 08:28:46;;;;;;;12.40;7.07;;;-6.80;99.90;;;;;;5001275;28;20219;-90
2022/01/01 08:39:26;;;;;;;7.10;5.23;;;-6.80;99.90;;;;;;5631711;23;20237;-90
2022/01/01 08:52:17;;;;;;;13.40;8.40;;;-6.80;99.90;;;;;;5019711;28;20208;-88
2022/01/01 08:54:48;;;;;;;19.40;10.37;;;-6.80;99.90;;;;;;5018283;28;20207;-90
2022/01/01 08:57:20;;;;;;;17.23;10.53;;;-6.80;99.90;;;;;;5019513;28;20203;-91
2022/01/01 08:59:54;;;;;;;17.23;9.87;;;-6.80;99.90;;;;;;5020411;28;20309;-91
2022/01/01 09:02:25;;;;;;;17.73;9.93;;;-6.80;99.90;;;;;;5020761;28;20215;-91
2022/01/01 09:04:59;;;;;;;14.03;9.33;;;-6.70;99.90;;;;;;5003728;28;20213;-90
2022/01/01 09:07:35;;;;;;;13.87;8.30;;;-6.70;99.90;;;;;;5020539;28;20192;-90
2022/01/01 09:10:08;;;;;;;11.97;6.87;;;-6.70;99.90;;;;;;5021063;28;20204;-90
2022/01/01 09:12:38;;;;;;;10.13;6.57;;;-6.60;99.90;;;;;;5020533;28;20206;-89
2022/01/01 09:15:11;;;;;;;8.30;5.67;;;-6.60;99.90;;;;;;5019747;28;20232;-89
2022/01/01 09:20:25;;;;;;;10.83;5.57;;;-6.50;99.90;;;;;;5335865;22;20247;-92
2022/01/01 09:23:01;;;;;;;10.20;5.13;;;-6.50;99.90;;;;;;5058144;28;20582;-91
2022/01/01 09:25:33;;;;;;;8.13;5.10;;;-6.50;99.90;;;;;;5057523;28;20202;-90
2022/01/01 09:28:05;;;;;;;10.03;5.07;;;-6.40;99.90;;;;;;5056318;28;20268;-90
2022/01/01 09:30:36;;;;;;;9.73;6.00;;;-6.40;99.90;;;;;;5039488;28;20216;-90
2022/01/01 09:33:09;;;;;;;8.50;5.33;;;-6.30;99.90;;;;;;5056928;28;20285;-90
2022/01/01 09:35:42;;;;;;;8.37;5.30;;;-6.30;99.90;;;;;;5056931;28;20201;-90
2022/01/01 09:38:16;;;;;;;9.80;5.20;;;-6.20;99.90;;;;;;5055981;28;20215;-90
2022/01/01 09:40:48;;;;;;;9.33;5.63;;;-6.20;99.90;;;;;;5057684;28;20280;-90
2022/01/01 09:43:30;;;;;;;12.30;5.73;;;-6.20;99.90;;;;;;5058503;28;20200;-90
2022/01/01 09:46:03;;;;;;;10.03;4.93;;;-6.10;99.90;;;;;;5058340;28;20721;-90
2022/01/01 09:48:35;;;;;;;9.70;5.77;;;-6.00;99.90;;;;;;5056167;28;20232;-90
2022/01/01 09:51:08;;;;;;;10.00;5.87;;;-5.90;99.90;;;;;;5039056;28;20200;-91
2022/01/01 09:53:42;;;;;;;12.27;7.07;;;-5.90;99.90;;;;;;5036139;28;20227;-91
2022/01/01 09:56:15;;;;;;;11.10;6.80;;;-5.80;99.90;;;;;;5054805;28;20201;-91
2022/01/01 09:58:47;;;;;;;12.60;7.10;;;-5.70;99.90;;;;;;5039594;28;20216;-91
2022/01/01 10:01:19;;;;;;;13.97;7.33;;;-5.70;99.90;;;;;;5054042;28;20204;-91
2022/01/01 10:03:53;;;;;;;12.70;7.40;;;-5.60;99.90;;;;;;5052851;28;20249;-90
2022/01/01 10:06:26;;;;;;;14.53;7.57;;;-5.60;99.90;;;;;;5055440;28;20201;-91
2022/01/01 10:09:03;;;;;;;17.20;6.93;;;-5.50;99.90;;;;;;5032550;28;20209;-92
2022/01/01 10:11:35;;;;;;;9.17;5.13;;;-5.40;99.90;;;;;;5016924;28;20220;-88
2022/01/01 10:14:09;;;;;;;7.83;4.53;;;-5.40;99.90;;;;;;5027747;28;20728;-90
2022/01/01 10:16:44;;;;;;;6.77;4.33;;;-5.40;99.90;;;;;;5025465;28;20259;-89
2022/01/01 10:19:16;;;;;;;7.30;4.40;;;-5.30;99.90;;;;;;5024957;28;20586;-88
2022/01/01 10:21:57;;;;;;;5.67;3.53;;;-5.30;99.90;;;;;;5025170;28;20208;-89
2022/01/01 10:27:42;;;;;;;6.93;3.70;;;-5.30;99.90;;;;;;5022464;28;20239;-89
2022/01/01 10:30:19;;;;;;;4.10;2.97;;;-5.20;99.90;;;;;;5019559;28;20219;-90
2022/01/01 10:33:12;;;;;;;4.13;3.27;;;-5.20;99.90;;;;;;5019641;28;20208;-89
2022/01/01 10:35:45;;;;;;;5.30;3.10;;;-5.20;99.90;;;;;;5019782;28;20211;-90
2022/01/01 10:38:18;;;;;;;4.40;2.70;;;-5.20;99.90;;;;;;5018635;28;20219;-90
2022/01/01 10:40:57;;;;;;;6.30;2.97;;;-5.10;99.90;;;;;;5020675;28;20727;-90
2022/01/01 10:43:38;;;;;;;8.23;3.30;;;-5.10;99.90;;;;;;5021411;28;20253;-92
2022/01/01 10:46:13;;;;;;;5.63;2.90;;;-5.10;99.90;;;;;;5021273;28;20212;-91
2022/01/01 10:48:55;;;;;;;4.77;2.70;;;-5.10;99.90;;;;;;5034091;28;20228;-91
2022/01/01 10:51:26;;;;;;;5.13;2.80;;;-5.10;99.90;;;;;;5037784;28;20204;-91
2022/01/01 10:54:05;;;;;;;3.37;2.17;;;-5.00;99.90;;;;;;5036679;28;20217;-91
2022/01/01 10:56:41;;;;;;;3.83;2.67;;;-5.10;99.90;;;;;;5026685;28;20293;-92
2022/01/01 10:59:12;;;;;;;6.50;3.40;;;-5.00;99.90;;;;;;5021837;28;20208;-91
2022/01/01 11:01:48;;;;;;;5.97;3.50;;;-4.90;99.90;;;;;;5021777;28;20213;-91
2022/01/01 11:04:21;;;;;;;5.67;3.00;;;-4.90;99.90;;;;;;5035568;28;20260;-89
2022/01/01 11:06:55;;;;;;;4.90;2.97;;;-4.90;99.90;;;;;;5036979;28;20214;-92
2022/01/01 11:09:27;;;;;;;7.43;3.20;;;-4.90;99.90;;;;;;5034995;28;20229;-90
2022/01/01 11:12:03;;;;;;;6.07;3.07;;;-4.80;99.90;;;;;;5030443;28;20212;-90
2022/01/01 11:14:34;;;;;;;4.33;3.17;;;-4.80;99.90;;;;;;5023906;28;20241;-90
2022/01/01 11:17:06;;;;;;;3.77;2.80;;;-4.80;99.90;;;;;;5017519;28;20290;-91
2022/01/01 11:19:38;;;;;;;5.37;2.83;;;-4.90;99.90;;;;;;5017957;28;20220;-91
2022/01/01 11:22:11;;;;;;;5.73;3.00;;;-5.10;99.90;;;;;;5017602;28;20248;-91
2022/01/01 11:24:44;;;;;;;5.30;3.03;;;-5.00;99.90;;;;;;5016653;28;20312;-91
2022/01/01 11:27:18;;;;;;;4.30;3.07;;;-4.90;99.90;;;;;;4998940;28;20233;-92
2022/01/01 11:29:52;;;;;;;3.63;2.50;;;-4.90;99.90;;;;;;5016520;28;20294;-91
2022/01/01 11:32:30;;;;;;;6.20;3.67;;;-4.80;99.90;;;;;;5001558;28;20206;-90
2022/01/01 11:35:03;;;;;;;6.30;3.93;;;-4.70;99.90;;;;;;5023956;28;20228;-91
2022/01/01 11:37:47;;;;;;;9.37;4.70;;;-4.70;99.90;;;;;;5035716;28;20603;-91
2022/01/01 11:40:19;;;;;;;9.87;4.80;;;-4.70;99.90;;;;;;5036790;28;20299;-90
2022/01/01 11:42:55;;;;;;;6.20;4.00;;;-4.70;99.90;;;;;;5036151;28;20258;-90
2022/01/01 11:45:44;;;;;;;7.43;4.13;;;-4.80;99.90;;;;;;5035433;28;20215;-91
2022/01/01 11:48:36;;;;;;;8.27;4.47;;;-4.80;99.90;;;;;;5034544;28;20217;-91
2022/01/01 11:51:33;;;;;;;7.07;3.90;;;-4.70;99.90;;;;;;5035343;28;20215;-91
2022/01/01 11:54:12;;;;;;;9.13;4.20;;;-4.70;99.90;;;;;;5036795;28;20240;-91
2022/01/01 11:57:18;;;;;;;7.23;4.20;;;-4.60;99.90;;;;;;5037199;28;20266;-92
2022/01/01 12:00:02;;;;;;;5.47;3.80;;;-4.60;99.90;;;;;;5034589;28;20217;-91
2022/01/01 12:02:49;;;;;;;5.83;4.00;;;-4.60;99.90;;;;;;5035934;28;20290;-92
2022/01/01 12:05:33;;;;;;;7.33;3.50;;;-4.60;99.90;;;;;;5035700;28;20295;-91
2022/01/01 12:08:05;;;;;;;4.07;3.10;;;-4.60;99.90;;;;;;5034695;28;20235;-91
2022/01/01 12:10:37;;;;;;;8.37;3.97;;;-4.50;99.90;;;;;;5035178;28;20273;-91
2022/01/01 12:13:09;;;;;;;6.00;4.00;;;-4.50;99.90;;;;;;5018299;28;20259;-92
2022/01/01 12:15:47;;;;;;;7.57;4.17;;;-4.50;99.90;;;;;;5034685;28;20237;-91
2022/01/01 12:18:20;;;;;;;6.63;4.47;;;-4.50;99.90;;;;;;5034686;28;20243;-91
2022/01/01 12:20:57;;;;;;;10.20;4.30;;;-4.50;99.90;;;;;;5037680;28;20216;-90
2022/01/01 12:23:31;;;;;;;7.47;4.47;;;-4.40;99.90;;;;;;5034883;28;20665;-90
2022/01/01 12:26:09;;;;;;;7.27;4.33;;;-4.40;99.90;;;;;;5018846;28;20891;-91
2022/01/01 12:28:44;;;;;;;5.57;3.80;;;-4.30;99.90;;;;;;5034598;28;20240;-91
2022/01/01 12:31:22;;;;;;;6.07;4.23;;;-4.30;99.90;;;;;;5034539;28;20259;-91
2022/01/01 12:33:59;;;;;;;6.00;4.13;;;-4.30;99.90;;;;;;5017549;28;20209;-90
2022/01/01 12:36:32;;;;;;;5.77;3.90;;;-4.30;99.90;;;;;;5033415;28;20323;-90
2022/01/01 12:39:07;;;;;;;6.57;4.00;;;-4.20;99.90;;;;;;5034431;28;20261;-90
2022/01/01 12:41:40;;;;;;;6.73;3.80;;;-4.20;99.90;;;;;;5017399;28;20347;-91
2022/01/01 12:44:18;;;;;;;6.80;3.87;;;-4.20;99.90;;;;;;5034680;28;20247;-90
2022/01/01 12:46:55;;;;;;;6.87;4.23;;;-4.20;99.90;;;;;;5033780;28;20208;-92
2022/01/01 12:49:32;;;;;;;7.37;4.13;;;-4.20;99.90;;;;;;5034648;28;20209;-90
2022/01/01 12:52:06;;;;;;;6.50;3.63;;;-4.10;99.90;;;;;;5034214;28;20255;-90
2022/01/01 12:54:45;;;;;;;4.63;3.20;;;-4.10;99.90;;;;;;5034861;28;20239;-91
2022/01/01 12:57:16;;;;;;;6.50;3.70;;;-4.00;99.90;;;;;;5035716;28;20255;-92
2022/01/01 12:59:48;;;;;;;8.13;3.90;;;-4.00;99.90;;;;;;5034322;28;20352;-91
2022/01/01 13:02:21;;;;;;;4.23;3.10;;;-4.00;99.90;;;;;;5034919;28;20726;-92
2022/01/01 13:05:02;;;;;;;6.37;3.23;;;-4.00;99.90;;;;;;5040430;28;20204;-92
2022/01/01 13:07:33;;;;;;;5.10;3.27;;;-4.00;99.90;;;;;;5037749;28;20204;-91
2022/01/01 13:10:05;;;;;;;5.37;2.97;;;-3.90;99.90;;;;;;5038153;28;20346;-90
2022/01/01 13:12:36;;;;;;;4.80;3.00;;;-3.90;99.90;;;;;;5021511;28;20265;-91
2022/01/01 13:15:08;;;;;;;6.47;3.70;;;-3.90;99.90;;;;;;5038383;28;20257;-90
2022/01/01 13:17:49;;;;;;;5.10;2.70;;;-3.80;99.90;;;;;;5038736;28;20216;-92
2022/01/01 13:20:20;;;;;;;4.83;2.80;;;-3.80;99.90;;;;;;5039395;28;20240;-92
2022/01/01 13:22:59;;;;;;;3.43;2.10;;;-3.80;99.90;;;;;;5043727;28;20240;-92
2022/01/01 13:25:30;;;;;;;5.47;2.93;;;-3.80;99.90;;;;;;5043592;28;20777;-91
2022/01/01 13:28:01;;;;;;;5.30;2.67;;;-3.80;99.90;;;;;;5056573;28;20225;-91
2022/01/01 13:30:33;;;;;;;4.77;2.70;;;-3.70;99.90;;;;;;5057153;28;20240;-91
2022/01/01 13:33:06;;;;;;;5.03;2.70;;;-3.70;99.90;;;;;;5051479;28;20217;-92
2022/01/01 13:35:38;;;;;;;4.50;2.67;;;-3.70;99.90;;;;;;5046765;28;20224;-92
2022/01/01 13:38:10;;;;;;;3.73;2.43;;;-3.70;99.90;;;;;;5041038;28;20646;-92
2022/01/01 13:40:46;;;;;;;5.33;2.57;;;-3.70;99.90;;;;;;5040807;28;20670;-93
2022/01/01 13:43:17;;;;;;;3.97;2.80;;;-3.70;99.90;;;;;;5040306;28;20244;-92
2022/01/01 13:46:08;;;;;;;6.83;3.20;;;-3.60;99.90;;;;;;5040902;28;20204;-92
2022/01/01 13:48:46;;;;;;;7.33;3.20;;;-3.60;99.90;;;;;;5040298;28;20212;-91
2022/01/01 13:51:27;;;;;;;4.80;3.10;;;-3.70;99.90;;;;;;5038452;28;20209;-92
2022/01/01 13:54:09;;;;;;;5.87;3.20;;;-3.70;99.90;;;;;;5039541;28;20213;-92
2022/01/01 13:56:41;;;;;;;5.23;3.43;;;-3.70;99.90;;;;;;5038257;28;20320;-91
2022/01/01 13:59:12;;;;;;;5.90;3.13;;;-3.60;99.90;;;;;;5045600;28;20204;-91
2022/01/01 14:01:46;;;;;;;5.37;3.30;;;-3.60;99.90;;;;;;5054978;28;20213;-92
2022/01/01 14:04:19;;;;;;;7.37;3.23;;;-3.60;99.90;;;;;;5056884;28;20197;-93
2022/01/01 14:07:08;;;;;;;5.03;3.40;;;-3.60;99.90;;;;;;5053178;28;20257;-93
2022/01/01 14:09:56;;;;;;;5.90;3.33;;;-3.60;99.90;;;;;;5056289;28;20229;-93
2022/01/01 14:12:29;;;;;;;9.70;3.33;;;-3.60;99.90;;;;;;5056010;28;20209;-91
2022/01/01 14:15:05;;;;;;;8.07;2.50;;;-3.60;99.90;;;;;;5055722;28;20209;-92
2022/01/01 14:17:57;;;;;;;4.33;2.50;;;-3.60;99.90;;;;;;5051185;28;20280;-91
2022/01/01 14:20:32;;;;;;;3.97;2.23;;;-3.60;99.90;;;;;;5044614;28;20315;-92
2022/01/01 14:23:05;;;;;;;3.77;2.10;;;-3.50;99.90;;;;;;5036971;28;20194;-90
2022/01/01 14:25:37;;;;;;;2.90;2.20;;;-3.50;99.90;;;;;;5022314;28;20256;-90
2022/01/01 14:28:09;;;;;;;3.93;2.47;;;-3.60;99.90;;;;;;5025503;28;20210;-92
2022/01/01 14:30:41;;;;;;;4.30;2.77;;;-3.60;99.90;;;;;;5007390;28;20217;-91